createdAt,value
2018-03-02T00:00:23.895Z,32.07
2018-03-02T00:02:52.393Z,33.00
2018-03-02T00:05:20.671Z,30.77
2018-03-02T00:07:52.303Z,37.53
2018-03-02T00:10:20.595Z,31.20
2018-03-02T00:12:51.591Z,36.03
2018-03-02T00:15:20.002Z,35.40
2018-03-02T00:17:48.292Z,25.93
2018-03-02T00:20:16.597Z,36.83
2018-03-02T00:22:47.056Z,30.37
2018-03-02T00:25:18.066Z,29.73
2018-03-02T00:27:53.223Z,28.63
2018-03-02T00:30:27.270Z,31.73
2018-03-02T00:32:57.123Z,35.97
2018-03-02T00:35:26.116Z,35.23
2018-03-02T00:37:54.935Z,31.00
2018-03-02T00:40:23.388Z,29.27
2018-03-02T00:43:00.223Z,34.90
2018-03-02T00:45:29.209Z,31.53
2018-03-02T00:47:57.900Z,31.60
2018-03-02T00:50:26.198Z,30.00
2018-03-02T00:52:56.279Z,28.03
2018-03-02T00:55:24.579Z,32.90
2018-03-02T00:58:08.246Z,31.60
2018-03-02T01:00:39.788Z,32.93
2018-03-02T01:03:13.117Z,33.57
2018-03-02T01:05:42.672Z,32.63
2018-03-02T01:08:10.943Z,24.70
2018-03-02T01:10:40.264Z,33.37
2018-03-02T01:13:08.567Z,23.73
2018-03-02T01:15:38.755Z,26.53
2018-03-02T01:18:09.772Z,27.40
2018-03-02T01:20:39.593Z,34.10
2018-03-02T01:23:15.081Z,31.70
2018-03-02T01:25:46.196Z,28.90
2018-03-02T01:28:50.192Z,30.63
2018-03-02T01:31:25.615Z,31.60
2018-03-02T01:34:00.461Z,26.73
2018-03-02T01:36:31.241Z,33.47
2018-03-02T01:38:59.591Z,33.93
2018-03-02T01:41:30.515Z,36.43
2018-03-02T01:43:58.960Z,27.60
2018-03-02T01:46:28.435Z,22.40
2018-03-02T01:48:58.291Z,33.43
2018-03-02T01:51:44.038Z,31.60
2018-03-02T01:54:12.733Z,32.60
2018-03-02T01:56:43.077Z,37.03
2018-03-02T01:59:12.836Z,26.73
2018-03-02T02:01:42.810Z,27.27
2018-03-02T02:04:14.403Z,28.73
2018-03-02T02:06:43.325Z,35.87
2018-03-02T02:09:14.947Z,29.03
2018-03-02T02:11:44.220Z,30.03
2018-03-02T02:14:15.751Z,29.10
2018-03-02T02:16:45.929Z,27.73
2018-03-02T02:19:14.605Z,32.93
2018-03-02T02:21:42.940Z,33.17
2018-03-02T02:24:11.636Z,34.77
2018-03-02T02:26:41.238Z,32.00
2018-03-02T02:32:56.176Z,29.33
2018-03-02T02:35:24.664Z,31.10
2018-03-02T02:37:55.195Z,35.27
2018-03-02T02:40:30.346Z,30.00
2018-03-02T02:43:03.331Z,28.07
2018-03-02T02:45:40.151Z,32.43
2018-03-02T02:48:10.728Z,31.77
2018-03-02T02:50:39.026Z,34.03
2018-03-02T02:53:07.986Z,31.87
2018-03-02T02:55:36.824Z,28.77
2018-03-02T02:58:06.447Z,34.77
2018-03-02T03:00:34.785Z,36.47
2018-03-02T03:03:03.236Z,32.83
2018-03-02T03:05:34.164Z,29.07
2018-03-02T03:08:02.641Z,29.20
2018-03-02T03:10:31.194Z,36.97
2018-03-02T03:12:59.482Z,33.80
2018-03-02T03:15:28.340Z,29.60
2018-03-02T03:17:58.612Z,30.37
2018-03-02T03:20:26.908Z,35.17
2018-03-02T03:22:56.432Z,31.67
2018-03-02T03:25:24.727Z,37.33
2018-03-02T03:27:57.161Z,34.63
2018-03-02T03:31:08.600Z,36.50
2018-03-02T03:33:42.382Z,34.67
2018-03-02T03:36:18.430Z,34.20
2018-03-02T03:38:48.078Z,41.30
2018-03-02T03:41:17.010Z,31.37
2018-03-02T03:43:45.479Z,35.23
2018-03-02T03:46:13.774Z,40.87
2018-03-02T03:48:46.190Z,34.87
2018-03-02T03:51:15.486Z,35.40
2018-03-02T03:53:48.884Z,34.50
2018-03-02T03:56:25.291Z,40.07
2018-03-02T03:58:55.214Z,36.60
2018-03-02T04:01:23.534Z,39.60
2018-03-02T04:03:52.811Z,36.27
2018-03-02T04:06:22.327Z,37.53
2018-03-02T04:08:52.414Z,36.57
2018-03-02T04:11:20.725Z,34.93
2018-03-02T04:13:58.737Z,40.60
2018-03-02T04:17:08.420Z,39.13
2018-03-02T04:19:38.875Z,32.30
2018-03-02T04:22:07.772Z,37.70
2018-03-02T04:24:36.110Z,32.90
2018-03-02T04:27:05.368Z,35.70
2018-03-02T04:29:34.947Z,39.33
2018-03-02T04:32:04.010Z,37.03
2018-03-02T04:34:39.285Z,37.73
2018-03-02T04:37:08.164Z,41.30
2018-03-02T04:39:36.446Z,39.47
2018-03-02T04:42:04.775Z,46.33
2018-03-02T04:44:33.073Z,36.53
2018-03-02T04:47:37.564Z,32.37
2018-03-02T04:50:16.120Z,35.27
2018-03-02T04:52:44.545Z,38.03
2018-03-02T04:55:16.995Z,33.77
2018-03-02T04:57:52.027Z,35.20
2018-03-02T05:00:20.478Z,36.50
2018-03-02T05:03:11.065Z,38.53
2018-03-02T05:05:40.334Z,35.77
2018-03-02T05:08:11.047Z,33.67
2018-03-02T05:10:46.427Z,34.10
2018-03-02T05:13:21.684Z,34.67
2018-03-02T05:15:54.004Z,32.53
2018-03-02T05:18:31.876Z,43.53
2018-03-02T05:21:05.899Z,37.77
2018-03-02T05:23:40.802Z,34.37
2018-03-02T05:26:13.186Z,38.03
2018-03-02T05:28:42.412Z,38.10
2018-03-02T05:31:13.423Z,40.07
2018-03-02T05:33:41.993Z,42.47
2018-03-02T05:36:12.334Z,42.53
2018-03-02T05:38:48.619Z,48.70
2018-03-02T05:41:17.204Z,37.70
2018-03-02T05:43:45.502Z,41.27
2018-03-02T05:46:14.391Z,39.60
2018-03-02T05:48:46.189Z,41.80
2018-03-02T05:51:16.005Z,34.63
2018-03-02T05:53:45.947Z,44.93
2018-03-02T05:56:14.244Z,43.03
2018-03-02T05:58:42.523Z,43.67
2018-03-02T06:01:10.811Z,39.23
2018-03-02T06:04:00.802Z,43.40
2018-03-02T06:06:29.968Z,37.80
2018-03-02T06:08:59.487Z,48.57
2018-03-02T06:11:31.350Z,40.60
2018-03-02T06:14:04.159Z,38.53
2018-03-02T06:16:32.478Z,39.93
2018-03-02T06:19:01.011Z,47.73
2018-03-02T06:21:30.460Z,43.67
2018-03-02T06:23:59.800Z,48.40
2018-03-02T06:26:30.092Z,37.10
2018-03-02T06:29:03.057Z,36.90
2018-03-02T06:31:40.744Z,42.67
2018-03-02T06:34:51.896Z,36.13
2018-03-02T06:37:21.897Z,42.97
2018-03-02T06:39:52.839Z,44.50
2018-03-02T06:42:27.320Z,43.00
2018-03-02T06:45:04.793Z,47.40
2018-03-02T06:47:56.167Z,44.83
2018-03-02T06:50:24.831Z,49.53
2018-03-02T06:52:53.317Z,39.93
2018-03-02T06:55:24.055Z,42.27
2018-03-02T06:57:57.314Z,39.80
2018-03-02T07:00:29.833Z,42.27
2018-03-02T07:07:00.784Z,42.13
2018-03-02T07:09:29.862Z,45.07
2018-03-02T07:11:58.344Z,44.23
2018-03-02T07:14:31.904Z,38.63
2018-03-02T07:17:07.921Z,43.63
2018-03-02T07:19:40.940Z,42.73
2018-03-02T07:22:09.453Z,46.57
2018-03-02T07:24:38.959Z,42.73
2018-03-02T07:27:07.275Z,41.17
2018-03-02T07:29:35.619Z,48.97
2018-03-02T07:32:05.663Z,40.90
2018-03-02T07:34:55.916Z,47.30
2018-03-02T07:37:27.234Z,53.83
2018-03-02T07:39:55.523Z,43.10
2018-03-02T07:42:25.106Z,53.43
2018-03-02T07:44:59.993Z,45.63
2018-03-02T07:47:32.012Z,47.27
2018-03-02T07:50:21.602Z,49.57
2018-03-02T07:52:50.198Z,50.13
2018-03-02T07:55:19.334Z,49.07
2018-03-02T07:57:53.614Z,45.30
2018-03-02T08:00:21.912Z,49.47
2018-03-02T08:02:50.210Z,48.37
2018-03-02T08:05:42.454Z,50.60
2018-03-02T08:08:12.320Z,38.80
2018-03-02T08:10:47.869Z,50.53
2018-03-02T08:13:16.174Z,52.10
2018-03-02T08:15:44.841Z,48.80
2018-03-02T08:18:13.782Z,48.60
2018-03-02T08:20:43.733Z,47.77
2018-03-02T08:23:12.741Z,48.83
2018-03-02T08:25:47.284Z,50.13
2018-03-02T08:28:21.410Z,54.23
2018-03-02T08:30:50.726Z,56.60
2018-03-02T08:33:19.022Z,42.33
2018-03-02T08:35:47.369Z,53.93
2018-03-02T08:38:16.428Z,58.27
2018-03-02T08:40:46.234Z,53.70
2018-03-02T08:43:16.502Z,60.37
2018-03-02T08:45:45.763Z,51.87
2018-03-02T08:48:17.254Z,57.63
2018-03-02T08:50:45.530Z,54.03
2018-03-02T08:53:14.332Z,52.93
2018-03-02T08:55:43.448Z,52.90
2018-03-02T08:58:19.039Z,48.60
2018-03-02T09:00:54.149Z,52.20
2018-03-02T09:03:25.765Z,57.27
2018-03-02T09:05:57.297Z,57.13
2018-03-02T09:08:26.345Z,51.40
2018-03-02T09:10:54.634Z,57.47
2018-03-02T09:13:24.543Z,55.30
2018-03-02T09:15:54.136Z,53.50
2018-03-02T09:18:25.395Z,52.17
2018-03-02T09:20:55.811Z,51.07
2018-03-02T09:23:35.939Z,64.57
2018-03-02T09:26:12.292Z,49.57
2018-03-02T09:28:46.278Z,54.30
2018-03-02T09:31:16.884Z,60.70
2018-03-02T09:33:48.092Z,58.43
2018-03-02T09:36:18.377Z,52.07
2018-03-02T09:38:47.891Z,57.93
2018-03-02T09:41:16.954Z,57.17
2018-03-02T09:43:45.834Z,59.87
2018-03-02T09:46:20.723Z,61.07
2018-03-02T09:48:51.619Z,58.37
2018-03-02T09:51:20.246Z,60.60
2018-03-02T09:53:49.487Z,55.10
2018-03-02T09:56:17.796Z,60.97
2018-03-02T09:58:46.223Z,60.27
2018-03-02T10:01:19.472Z,53.63
2018-03-02T10:03:54.404Z,56.13
2018-03-02T10:06:29.051Z,57.63
2018-03-02T10:08:58.637Z,64.83
2018-03-02T10:11:26.930Z,58.03
2018-03-02T10:13:55.247Z,54.20
2018-03-02T10:16:23.575Z,46.80
2018-03-02T10:18:53.290Z,52.90
2018-03-02T10:21:45.962Z,60.27
2018-03-02T10:24:15.058Z,66.83
2018-03-02T10:26:43.379Z,64.30
2018-03-02T10:29:15.993Z,50.20
2018-03-02T10:31:48.720Z,58.03
2018-03-02T10:34:24.556Z,53.17
2018-03-02T10:36:59.904Z,64.17
2018-03-02T10:39:35.947Z,60.40
2018-03-02T10:42:04.269Z,54.57
2018-03-02T10:44:32.547Z,57.70
2018-03-02T10:47:00.861Z,55.73
2018-03-02T10:49:29.164Z,50.47
2018-03-02T10:52:05.344Z,52.57
2018-03-02T10:54:34.214Z,59.27
2018-03-02T10:57:02.502Z,50.67
2018-03-02T10:59:31.739Z,61.63
2018-03-02T11:02:07.254Z,53.67
2018-03-02T11:04:36.103Z,60.13
2018-03-02T11:07:04.562Z,53.27
2018-03-02T11:09:33.559Z,59.03
2018-03-02T11:12:06.022Z,57.33
2018-03-02T11:14:37.174Z,56.40
2018-03-02T11:17:05.454Z,52.83
2018-03-02T11:19:34.451Z,51.50
2018-03-02T11:22:09.635Z,51.10
2018-03-02T11:24:37.912Z,63.57
2018-03-02T11:27:06.208Z,48.23
2018-03-02T11:29:40.972Z,53.47
2018-03-02T11:32:12.571Z,52.50
2018-03-02T11:34:44.616Z,57.57
2018-03-02T11:37:19.226Z,61.23
2018-03-02T11:39:54.256Z,51.23
2018-03-02T11:42:28.832Z,54.53
2018-03-02T11:45:04.313Z,54.63
2018-03-02T11:47:37.718Z,57.53
2018-03-02T11:50:06.250Z,52.60
2018-03-02T11:52:35.092Z,60.87
2018-03-02T11:55:06.141Z,57.37
2018-03-02T11:57:34.458Z,51.33
2018-03-02T12:00:03.124Z,50.63
2018-03-02T12:02:37.728Z,49.03
2018-03-02T12:05:09.293Z,48.87
2018-03-02T12:07:42.481Z,54.87
2018-03-02T12:10:10.784Z,55.93
2018-03-02T12:12:39.322Z,57.37
2018-03-02T12:15:07.618Z,54.93
2018-03-02T12:17:38.684Z,55.13
2018-03-02T12:20:07.864Z,56.03
2018-03-02T12:22:42.088Z,53.83
2018-03-02T12:25:15.120Z,51.70
2018-03-02T12:27:50.040Z,57.77
2018-03-02T12:30:22.974Z,60.97
2018-03-02T12:32:51.254Z,55.83
2018-03-02T12:35:19.799Z,62.27
2018-03-02T12:37:48.411Z,57.93
2018-03-02T12:40:17.925Z,59.40
2018-03-02T12:42:48.239Z,54.23
2018-03-02T12:45:16.848Z,62.70
2018-03-02T12:47:45.421Z,71.83
2018-03-02T12:50:16.245Z,67.73
2018-03-02T12:52:52.836Z,62.17
2018-03-02T12:55:27.646Z,60.90
2018-03-02T12:58:02.781Z,56.83
2018-03-02T13:00:34.612Z,56.73
2018-03-02T13:03:06.925Z,68.57
2018-03-02T13:05:36.394Z,70.07
2018-03-02T13:08:05.898Z,52.57
2018-03-02T13:10:34.523Z,61.73
2018-03-02T13:13:02.839Z,57.90
2018-03-02T13:15:31.178Z,56.57
2018-03-02T13:18:07.316Z,55.53
2018-03-02T13:20:41.935Z,57.43
2018-03-02T13:23:11.166Z,58.77
2018-03-02T13:25:40.645Z,49.17
2018-03-02T13:28:21.695Z,52.17
2018-03-02T13:30:53.455Z,53.17
2018-03-02T13:36:27.114Z,49.07
2018-03-02T13:38:57.484Z,50.83
2018-03-02T13:41:39.240Z,52.10
2018-03-02T13:44:11.695Z,49.83
2018-03-02T13:46:42.939Z,46.17
2018-03-02T13:49:27.473Z,51.33
2018-03-02T13:51:58.482Z,47.77
2018-03-02T13:54:28.954Z,51.43
2018-03-02T13:57:12.688Z,53.17
2018-03-02T13:59:41.202Z,59.37
2018-03-02T14:05:23.235Z,55.07
2018-03-02T14:07:56.056Z,54.30
2018-03-02T14:10:25.764Z,54.63
2018-03-02T14:12:56.334Z,51.33
2018-03-02T14:15:31.715Z,55.97
2018-03-02T14:18:06.364Z,63.03
2018-03-02T14:20:41.937Z,54.70
2018-03-02T14:23:15.533Z,54.87
2018-03-02T14:25:45.285Z,61.17
2018-03-02T14:28:15.157Z,57.67
2018-03-02T14:30:43.695Z,60.87
2018-03-02T14:33:12.576Z,63.43
2018-03-02T14:35:43.353Z,68.50
2018-03-02T14:38:17.176Z,67.30
2018-03-02T14:41:07.590Z,73.73
2018-03-02T14:43:35.960Z,75.80
2018-03-02T14:46:04.647Z,62.17
2018-03-02T14:48:35.871Z,83.30
2018-03-02T14:51:09.087Z,80.20
2018-03-02T14:53:37.873Z,87.60
2018-03-02T14:56:06.776Z,81.60
2018-03-02T14:58:37.189Z,92.10
2018-03-02T15:01:05.543Z,84.17
2018-03-02T15:03:33.899Z,86.43
2018-03-02T15:06:04.198Z,80.33
2018-03-02T15:08:33.270Z,75.13
2018-03-02T15:11:01.567Z,96.97
2018-03-02T15:13:30.678Z,76.57
2018-03-02T15:15:59.468Z,90.00
2018-03-02T15:18:28.346Z,85.73
2018-03-02T15:20:56.646Z,82.27
2018-03-02T15:23:24.952Z,86.30
2018-03-02T15:25:54.808Z,75.90
2018-03-02T15:28:24.438Z,81.27
2018-03-02T15:30:55.507Z,80.57
2018-03-02T15:33:28.502Z,81.07
2018-03-02T15:35:57.762Z,77.33
2018-03-02T15:38:26.043Z,83.03
2018-03-02T15:41:02.777Z,74.07
2018-03-02T15:43:31.481Z,66.47
2018-03-02T15:46:00.227Z,72.00
2018-03-02T15:48:28.546Z,74.93
2018-03-02T15:50:57.398Z,91.93
2018-03-02T15:53:26.402Z,70.03
2018-03-02T15:56:38.469Z,66.80
2018-03-02T15:59:14.059Z,80.53
2018-03-02T16:01:45.076Z,59.97
2018-03-02T16:04:13.644Z,72.53
2018-03-02T16:06:42.031Z,68.97
2018-03-02T16:09:10.328Z,67.23
2018-03-02T16:11:39.561Z,67.90
2018-03-02T16:14:08.135Z,60.87
2018-03-02T16:16:36.835Z,64.17
2018-03-02T16:19:10.860Z,69.73
2018-03-02T16:21:45.812Z,62.00
2018-03-02T16:24:21.550Z,64.40
2018-03-02T16:26:54.457Z,72.70
2018-03-02T16:29:24.513Z,76.63
2018-03-02T16:32:01.548Z,64.80
2018-03-02T16:34:34.743Z,68.83
2018-03-02T16:37:07.360Z,64.47
2018-03-02T16:39:36.464Z,69.80
2018-03-02T16:42:06.293Z,64.53
2018-03-02T16:44:34.792Z,67.00
2018-03-02T16:47:06.979Z,63.87
2018-03-02T16:49:39.504Z,71.43
2018-03-02T16:52:08.139Z,77.40
2018-03-02T16:54:36.423Z,69.07
2018-03-02T16:57:12.642Z,87.50
2018-03-02T16:59:40.933Z,92.33
2018-03-02T17:02:15.722Z,69.87
2018-03-02T17:04:45.636Z,73.43
2018-03-02T17:07:20.864Z,59.30
2018-03-02T17:09:52.098Z,70.30
2018-03-02T17:12:32.854Z,79.87
2018-03-02T17:15:07.974Z,81.93
2018-03-02T17:17:44.154Z,83.23
2018-03-02T17:20:18.616Z,85.33
2018-03-02T17:22:47.100Z,74.27
2018-03-02T17:25:21.976Z,78.37
2018-03-02T17:27:56.616Z,89.87
2018-03-02T17:30:30.492Z,94.67
2018-03-02T17:33:00.144Z,95.40
2018-03-02T17:35:38.142Z,91.57
2018-03-02T17:38:15.114Z,95.30
2018-03-02T17:40:44.157Z,88.40
2018-03-02T17:43:19.133Z,94.87
2018-03-02T17:45:51.986Z,92.27
2018-03-02T17:48:26.486Z,185.70
2018-03-02T17:50:59.059Z,84.23
2018-03-02T17:53:30.685Z,112.73
2018-03-02T17:56:03.901Z,88.23
2018-03-02T17:58:54.188Z,91.70
2018-03-02T18:01:22.491Z,108.67
2018-03-02T18:03:51.505Z,87.73
2018-03-02T18:06:22.374Z,100.83
2018-03-02T18:08:51.104Z,92.90
2018-03-02T18:11:20.517Z,95.57
2018-03-02T18:13:53.312Z,88.00
2018-03-02T18:16:21.622Z,79.57
2018-03-02T18:18:51.824Z,90.97
2018-03-02T18:21:21.163Z,91.93
2018-03-02T18:23:52.353Z,93.80
2018-03-02T18:26:21.652Z,94.80
2018-03-02T18:29:08.208Z,100.30
2018-03-02T18:31:37.494Z,96.80
2018-03-02T18:34:13.069Z,102.70
2018-03-02T18:36:48.493Z,93.53
2018-03-02T18:39:23.411Z,96.40
2018-03-02T18:41:54.461Z,98.90
2018-03-02T18:44:32.750Z,99.57
2018-03-02T18:47:07.024Z,93.17
2018-03-02T18:49:43.651Z,94.83
2018-03-02T18:52:15.754Z,115.60
2018-03-02T18:54:47.980Z,89.20
2018-03-02T18:57:18.611Z,109.97
2018-03-02T18:59:54.193Z,94.73
2018-03-02T19:02:23.133Z,103.40
2018-03-02T19:04:53.382Z,101.73
2018-03-02T19:07:23.657Z,111.07
2018-03-02T19:09:52.993Z,87.50
2018-03-02T19:12:25.831Z,105.27
2018-03-02T19:15:03.732Z,167.40
2018-03-02T19:17:32.036Z,230.13
2018-03-02T19:20:02.778Z,165.83
2018-03-02T19:22:31.774Z,167.93
2018-03-02T19:25:00.865Z,118.53
2018-03-02T19:27:30.457Z,96.67
2018-03-02T19:30:01.339Z,101.63
2018-03-02T19:32:34.106Z,99.63
2018-03-02T19:35:07.149Z,101.20
2018-03-02T19:37:38.762Z,104.33
2018-03-02T19:40:07.067Z,113.00
2018-03-02T19:42:35.940Z,103.60
2018-03-02T19:45:08.863Z,104.47
2018-03-02T19:47:40.818Z,110.80
2018-03-02T19:50:10.635Z,103.70
2018-03-02T19:52:39.757Z,103.07
2018-03-02T19:55:09.636Z,115.97
2018-03-02T19:57:40.920Z,112.00
2018-03-02T20:00:13.755Z,114.57
2018-03-02T20:02:42.347Z,108.37
2018-03-02T20:05:12.400Z,122.43
2018-03-02T20:07:43.470Z,118.50
2018-03-02T20:10:18.242Z,115.50
2018-03-02T20:12:47.761Z,107.23
2018-03-02T20:15:23.333Z,118.60
2018-03-02T20:18:14.299Z,111.53
2018-03-02T20:20:46.870Z,117.70
2018-03-02T20:23:15.180Z,106.70
2018-03-02T20:25:45.215Z,123.50
2018-03-02T20:28:16.247Z,110.97
2018-03-02T20:30:49.902Z,113.60
2018-03-02T20:33:40.769Z,92.63
2018-03-02T20:36:10.320Z,127.33
2018-03-02T20:38:40.107Z,107.03
2018-03-02T20:41:10.053Z,120.37
2018-03-02T20:43:38.760Z,116.57
2018-03-02T20:46:07.429Z,118.90
2018-03-02T20:48:39.673Z,126.97
2018-03-02T20:51:09.657Z,119.73
2018-03-02T20:53:38.334Z,126.37
2018-03-02T20:56:10.363Z,130.17
2018-03-02T20:58:42.011Z,119.30
2018-03-02T21:01:12.042Z,119.13
2018-03-02T21:04:02.235Z,130.53
2018-03-02T21:06:31.761Z,129.83
2018-03-02T21:09:00.971Z,138.43
2018-03-02T21:11:36.480Z,139.13
2018-03-02T21:14:05.308Z,134.07
2018-03-02T21:16:40.831Z,122.83
2018-03-02T21:19:10.334Z,132.37
2018-03-02T21:21:42.597Z,135.90
2018-03-02T21:24:16.044Z,121.70
2018-03-02T21:26:47.221Z,120.10
2018-03-02T21:29:21.759Z,125.93
2018-03-02T21:31:53.845Z,159.10
2018-03-02T21:34:43.682Z,147.70
2018-03-02T21:37:13.321Z,144.13
2018-03-02T21:39:42.171Z,135.93
2018-03-02T21:42:11.118Z,140.80
2018-03-02T21:44:47.250Z,134.93
2018-03-02T21:47:20.098Z,128.87
2018-03-02T21:50:09.608Z,147.33
2018-03-02T21:52:37.932Z,139.90
2018-03-02T21:55:06.233Z,141.67
2018-03-02T21:57:38.306Z,144.90
2018-03-02T22:00:06.850Z,144.40
2018-03-02T22:02:40.681Z,152.17
2018-03-02T22:05:15.554Z,150.30
2018-03-02T22:07:46.252Z,143.30
2018-03-02T22:10:14.927Z,145.80
2018-03-02T22:12:48.028Z,146.70
2018-03-02T22:15:16.318Z,146.73
2018-03-02T22:17:45.851Z,162.23
2018-03-02T22:20:42.975Z,155.13
2018-03-02T22:23:12.559Z,143.67
2018-03-02T22:25:44.035Z,150.60
2018-03-02T22:28:17.688Z,150.97
2018-03-02T22:30:47.711Z,141.87
2018-03-02T22:33:16.009Z,137.83
2018-03-02T22:35:44.364Z,151.20
2018-03-02T22:38:12.657Z,137.20
2018-03-02T22:40:41.531Z,148.67
2018-03-02T22:43:16.799Z,141.17
2018-03-02T22:45:45.071Z,141.47
2018-03-02T22:48:18.056Z,141.63
2018-03-02T22:50:50.315Z,144.87
2018-03-02T22:53:24.720Z,147.37
2018-03-02T22:55:58.426Z,146.97
2018-03-02T22:58:32.243Z,161.73
2018-03-02T23:01:01.746Z,140.07
2018-03-02T23:03:30.217Z,140.40
2018-03-02T23:06:23.136Z,138.30
2018-03-02T23:08:52.300Z,144.97
2018-03-02T23:11:20.854Z,136.13
2018-03-02T23:13:50.249Z,142.93
2018-03-02T23:16:19.301Z,141.60
2018-03-02T23:18:47.615Z,137.33
2018-03-02T23:21:16.959Z,132.27
2018-03-02T23:23:49.968Z,146.97
2018-03-02T23:26:20.784Z,142.20
2018-03-02T23:28:53.914Z,140.17
2018-03-02T23:31:22.214Z,139.87
2018-03-02T23:33:51.837Z,131.73
2018-03-02T23:36:20.821Z,137.70
2018-03-02T23:38:53.351Z,129.73
2018-03-02T23:41:21.884Z,131.20
2018-03-02T23:43:52.212Z,145.67
2018-03-02T23:46:27.039Z,138.23
2018-03-02T23:49:03.147Z,145.73
2018-03-02T23:51:35.050Z,121.50
2018-03-02T23:54:10.731Z,138.03
2018-03-02T23:56:39.610Z,137.40
2018-03-02T23:59:15.039Z,129.60
